sensor_id;sensor_type;location;lat;lon;timestamp;P1;durP1;ratioP1;P2;durP2;ratioP2
64063;SDS011;50314;50.618;10.642;2022-09-06T00:00:34;2.53;;;2.10;;
64063;SDS011;50314;50.618;10.642;2022-09-06T00:03:00;2.55;;;2.17;;
64063;SDS011;50314;50.618;10.642;2022-09-06T00:05:27;3.20;;;2.00;;
64063;SDS011;50314;50.618;10.642;2022-09-06T00:07:53;2.03;;;1.70;;
64063;SDS011;50314;50.618;10.642;2022-09-06T00:10:18;2.22;;;1.80;;
64063;SDS011;50314;50.618;10.642;2022-09-06T00:12:44;2.08;;;1.70;;
64063;SDS011;50314;50.618;10.642;2022-09-06T00:15:11;2.65;;;2.00;;
64063;SDS011;50314;50.618;10.642;2022-09-06T00:17:36;2.60;;;1.85;;
64063;SDS011;50314;50.618;10.642;2022-09-06T00:20:02;2.25;;;1.73;;
64063;SDS011;50314;50.618;10.642;2022-09-06T00:22:28;2.15;;;1.80;;
64063;SDS011;50314;50.618;10.642;2022-09-06T00:24:54;2.03;;;1.77;;
64063;SDS011;50314;50.618;10.642;2022-09-06T00:27:19;2.58;;;2.00;;
64063;SDS011;50314;50.618;10.642;2022-09-06T00:29:44;2.67;;;2.05;;
64063;SDS011;50314;50.618;10.642;2022-09-06T00:32:10;2.88;;;2.13;;
64063;SDS011;50314;50.618;10.642;2022-09-06T00:34:35;2.00;;;1.63;;
64063;SDS011;50314;50.618;10.642;2022-09-06T00:37:00;2.28;;;1.88;;
64063;SDS011;50314;50.618;10.642;2022-09-06T00:39:26;2.80;;;1.95;;
64063;SDS011;50314;50.618;10.642;2022-09-06T00:41:51;2.25;;;1.77;;
64063;SDS011;50314;50.618;10.642;2022-09-06T00:44:17;3.35;;;2.00;;
64063;SDS011;50314;50.618;10.642;2022-09-06T00:46:43;2.38;;;1.90;;
64063;SDS011;50314;50.618;10.642;2022-09-06T00:49:12;2.47;;;2.00;;
64063;SDS011;50314;50.618;10.642;2022-09-06T00:51:48;3.05;;;1.98;;
64063;SDS011;50314;50.618;10.642;2022-09-06T00:54:19;2.47;;;1.85;;
64063;SDS011;50314;50.618;10.642;2022-09-06T00:56:45;2.60;;;1.90;;
64063;SDS011;50314;50.618;10.642;2022-09-06T00:59:11;2.40;;;1.88;;
64063;SDS011;50314;50.618;10.642;2022-09-06T01:01:36;2.05;;;1.85;;
64063;SDS011;50314;50.618;10.642;2022-09-06T01:04:02;1.98;;;1.67;;
64063;SDS011;50314;50.618;10.642;2022-09-06T01:09:32;2.13;;;1.85;;
64063;SDS011;50314;50.618;10.642;2022-09-06T01:15:24;2.20;;;1.77;;
64063;SDS011;50314;50.618;10.642;2022-09-06T01:32:55;2.15;;;1.70;;
64063;SDS011;50314;50.618;10.642;2022-09-06T01:35:56;2.05;;;1.88;;
64063;SDS011;50314;50.618;10.642;2022-09-06T01:38:26;2.42;;;1.80;;
64063;SDS011;50314;50.618;10.642;2022-09-06T01:40:53;3.20;;;1.90;;
64063;SDS011;50314;50.618;10.642;2022-09-06T01:43:22;2.97;;;1.73;;
64063;SDS011;50314;50.618;10.642;2022-09-06T01:46:00;2.65;;;1.90;;
64063;SDS011;50314;50.618;10.642;2022-09-06T01:48:53;2.15;;;1.80;;
64063;SDS011;50314;50.618;10.642;2022-09-06T01:54:45;2.10;;;1.73;;
64063;SDS011;50314;50.618;10.642;2022-09-06T02:00:32;2.40;;;1.60;;
64063;SDS011;50314;50.618;10.642;2022-09-06T02:02:49;2.05;;;1.67;;
64063;SDS011;50314;50.618;10.642;2022-09-06T02:07:57;2.00;;;1.70;;
64063;SDS011;50314;50.618;10.642;2022-09-06T02:10:48;1.85;;;1.65;;
64063;SDS011;50314;50.618;10.642;2022-09-06T02:13:19;1.83;;;1.55;;
64063;SDS011;50314;50.618;10.642;2022-09-06T02:15:50;2.08;;;1.70;;
64063;SDS011;50314;50.618;10.642;2022-09-06T02:18:22;2.10;;;1.70;;
64063;SDS011;50314;50.618;10.642;2022-09-06T02:20:53;2.22;;;1.73;;
64063;SDS011;50314;50.618;10.642;2022-09-06T02:23:22;2.05;;;1.85;;
64063;SDS011;50314;50.618;10.642;2022-09-06T02:25:52;1.90;;;1.70;;
64063;SDS011;50314;50.618;10.642;2022-09-06T02:28:19;1.90;;;1.60;;
64063;SDS011;50314;50.618;10.642;2022-09-06T02:30:48;2.22;;;1.75;;
64063;SDS011;50314;50.618;10.642;2022-09-06T02:33:20;2.15;;;1.80;;
64063;SDS011;50314;50.618;10.642;2022-09-06T02:35:54;1.73;;;1.52;;
64063;SDS011;50314;50.618;10.642;2022-09-06T02:38:21;2.10;;;1.90;;
64063;SDS011;50314;50.618;10.642;2022-09-06T02:40:49;2.10;;;1.90;;
64063;SDS011;50314;50.618;10.642;2022-09-06T02:43:17;1.90;;;1.50;;
64063;SDS011;50314;50.618;10.642;2022-09-06T02:45:43;2.05;;;1.58;;
64063;SDS011;50314;50.618;10.642;2022-09-06T02:48:09;1.88;;;1.60;;
64063;SDS011;50314;50.618;10.642;2022-09-06T02:50:34;1.58;;;1.48;;
64063;SDS011;50314;50.618;10.642;2022-09-06T02:53:08;2.40;;;1.60;;
64063;SDS011;50314;50.618;10.642;2022-09-06T02:55:35;2.28;;;1.85;;
64063;SDS011;50314;50.618;10.642;2022-09-06T02:58:01;1.70;;;1.60;;
64063;SDS011;50314;50.618;10.642;2022-09-06T03:00:28;1.75;;;1.50;;
64063;SDS011;50314;50.618;10.642;2022-09-06T03:02:54;1.65;;;1.35;;
64063;SDS011;50314;50.618;10.642;2022-09-06T03:05:24;2.22;;;1.38;;
64063;SDS011;50314;50.618;10.642;2022-09-06T03:07:50;2.08;;;1.55;;
64063;SDS011;50314;50.618;10.642;2022-09-06T03:10:16;2.22;;;1.80;;
64063;SDS011;50314;50.618;10.642;2022-09-06T03:12:42;2.22;;;1.60;;
64063;SDS011;50314;50.618;10.642;2022-09-06T03:15:08;2.88;;;1.80;;
64063;SDS011;50314;50.618;10.642;2022-09-06T03:17:35;1.90;;;1.70;;
64063;SDS011;50314;50.618;10.642;2022-09-06T03:20:01;2.60;;;1.70;;
64063;SDS011;50314;50.618;10.642;2022-09-06T03:22:26;2.03;;;1.50;;
64063;SDS011;50314;50.618;10.642;2022-09-06T03:24:51;1.65;;;1.50;;
64063;SDS011;50314;50.618;10.642;2022-09-06T03:27:17;2.08;;;1.63;;
64063;SDS011;50314;50.618;10.642;2022-09-06T03:29:42;1.90;;;1.58;;
64063;SDS011;50314;50.618;10.642;2022-09-06T03:32:07;2.55;;;1.60;;
64063;SDS011;50314;50.618;10.642;2022-09-06T03:34:33;1.98;;;1.67;;
64063;SDS011;50314;50.618;10.642;2022-09-06T03:36:58;1.90;;;1.42;;
64063;SDS011;50314;50.618;10.642;2022-09-06T03:39:24;2.10;;;1.65;;
64063;SDS011;50314;50.618;10.642;2022-09-06T03:41:49;1.65;;;1.50;;
64063;SDS011;50314;50.618;10.642;2022-09-06T03:44:14;2.65;;;1.75;;
64063;SDS011;50314;50.618;10.642;2022-09-06T03:46:40;1.98;;;1.77;;
64063;SDS011;50314;50.618;10.642;2022-09-06T03:49:05;1.52;;;1.42;;
64063;SDS011;50314;50.618;10.642;2022-09-06T03:51:32;2.63;;;1.70;;
64063;SDS011;50314;50.618;10.642;2022-09-06T03:53:57;1.70;;;1.23;;
64063;SDS011;50314;50.618;10.642;2022-09-06T03:56:22;2.25;;;1.73;;
64063;SDS011;50314;50.618;10.642;2022-09-06T03:58:48;1.88;;;1.50;;
64063;SDS011;50314;50.618;10.642;2022-09-06T04:01:13;1.75;;;1.50;;
64063;SDS011;50314;50.618;10.642;2022-09-06T04:03:39;1.98;;;1.50;;
64063;SDS011;50314;50.618;10.642;2022-09-06T04:06:05;1.75;;;1.45;;
64063;SDS011;50314;50.618;10.642;2022-09-06T04:08:31;1.83;;;1.50;;
64063;SDS011;50314;50.618;10.642;2022-09-06T04:10:57;2.38;;;1.73;;
64063;SDS011;50314;50.618;10.642;2022-09-06T04:13:23;1.58;;;1.48;;
64063;SDS011;50314;50.618;10.642;2022-09-06T04:15:50;2.47;;;1.50;;
64063;SDS011;50314;50.618;10.642;2022-09-06T04:18:17;2.22;;;1.70;;
64063;SDS011;50314;50.618;10.642;2022-09-06T04:20:44;2.13;;;1.65;;
64063;SDS011;50314;50.618;10.642;2022-09-06T04:23:11;2.10;;;1.70;;
64063;SDS011;50314;50.618;10.642;2022-09-06T04:25:36;1.60;;;1.33;;
64063;SDS011;50314;50.618;10.642;2022-09-06T04:28:02;2.47;;;1.70;;
64063;SDS011;50314;50.618;10.642;2022-09-06T04:30:27;1.90;;;1.65;;
64063;SDS011;50314;50.618;10.642;2022-09-06T04:32:53;1.90;;;1.75;;
64063;SDS011;50314;50.618;10.642;2022-09-06T04:35:18;3.08;;;1.80;;
64063;SDS011;50314;50.618;10.642;2022-09-06T04:37:44;2.00;;;1.58;;
64063;SDS011;50314;50.618;10.642;2022-09-06T04:40:09;2.08;;;1.77;;
64063;SDS011;50314;50.618;10.642;2022-09-06T04:42:35;2.42;;;1.83;;
64063;SDS011;50314;50.618;10.642;2022-09-06T04:45:00;2.30;;;1.65;;
64063;SDS011;50314;50.618;10.642;2022-09-06T04:47:25;1.75;;;1.65;;
64063;SDS011;50314;50.618;10.642;2022-09-06T04:49:51;2.33;;;1.77;;
64063;SDS011;50314;50.618;10.642;2022-09-06T04:52:17;2.17;;;1.65;;
64063;SDS011;50314;50.618;10.642;2022-09-06T04:54:43;2.85;;;1.80;;
64063;SDS011;50314;50.618;10.642;2022-09-06T04:57:08;2.75;;;2.00;;
64063;SDS011;50314;50.618;10.642;2022-09-06T04:59:34;1.98;;;1.75;;
64063;SDS011;50314;50.618;10.642;2022-09-06T05:02:00;2.15;;;1.67;;
64063;SDS011;50314;50.618;10.642;2022-09-06T05:04:25;2.50;;;1.70;;
64063;SDS011;50314;50.618;10.642;2022-09-06T05:07:00;2.40;;;1.80;;
64063;SDS011;50314;50.618;10.642;2022-09-06T05:09:26;2.40;;;1.73;;
64063;SDS011;50314;50.618;10.642;2022-09-06T05:11:51;1.83;;;1.65;;
64063;SDS011;50314;50.618;10.642;2022-09-06T05:14:17;1.75;;;1.63;;
64063;SDS011;50314;50.618;10.642;2022-09-06T05:16:42;1.67;;;1.48;;
64063;SDS011;50314;50.618;10.642;2022-09-06T05:19:09;2.92;;;1.92;;
64063;SDS011;50314;50.618;10.642;2022-09-06T05:21:34;2.05;;;1.70;;
64063;SDS011;50314;50.618;10.642;2022-09-06T05:24:00;2.38;;;1.90;;
64063;SDS011;50314;50.618;10.642;2022-09-06T05:26:25;2.20;;;1.70;;
64063;SDS011;50314;50.618;10.642;2022-09-06T05:28:50;2.72;;;1.90;;
64063;SDS011;50314;50.618;10.642;2022-09-06T05:31:26;2.38;;;1.77;;
64063;SDS011;50314;50.618;10.642;2022-09-06T05:33:53;2.13;;;1.63;;
64063;SDS011;50314;50.618;10.642;2022-09-06T05:36:19;1.83;;;1.60;;
64063;SDS011;50314;50.618;10.642;2022-09-06T05:38:47;2.08;;;1.63;;
64063;SDS011;50314;50.618;10.642;2022-09-06T05:41:12;2.15;;;1.90;;
64063;SDS011;50314;50.618;10.642;2022-09-06T05:43:37;2.28;;;1.85;;
64063;SDS011;50314;50.618;10.642;2022-09-06T05:46:03;2.15;;;1.92;;
64063;SDS011;50314;50.618;10.642;2022-09-06T05:48:28;2.22;;;1.98;;
64063;SDS011;50314;50.618;10.642;2022-09-06T05:51:01;1.90;;;1.70;;
64063;SDS011;50314;50.618;10.642;2022-09-06T05:53:41;2.30;;;1.73;;
64063;SDS011;50314;50.618;10.642;2022-09-06T05:56:08;2.00;;;1.77;;
64063;SDS011;50314;50.618;10.642;2022-09-06T05:58:35;2.35;;;2.00;;
64063;SDS011;50314;50.618;10.642;2022-09-06T06:01:13;2.55;;;1.80;;
64063;SDS011;50314;50.618;10.642;2022-09-06T06:03:40;2.22;;;1.60;;
64063;SDS011;50314;50.618;10.642;2022-09-06T06:06:07;2.03;;;1.80;;
64063;SDS011;50314;50.618;10.642;2022-09-06T06:08:33;2.00;;;1.80;;
64063;SDS011;50314;50.618;10.642;2022-09-06T06:13:26;2.17;;;1.70;;
64063;SDS011;50314;50.618;10.642;2022-09-06T06:15:53;2.13;;;1.63;;
64063;SDS011;50314;50.618;10.642;2022-09-06T06:18:19;1.90;;;1.70;;
64063;SDS011;50314;50.618;10.642;2022-09-06T06:20:44;1.70;;;1.60;;
64063;SDS011;50314;50.618;10.642;2022-09-06T06:23:10;1.92;;;1.80;;
64063;SDS011;50314;50.618;10.642;2022-09-06T06:25:35;1.85;;;1.67;;
64063;SDS011;50314;50.618;10.642;2022-09-06T06:28:00;2.10;;;1.88;;
64063;SDS011;50314;50.618;10.642;2022-09-06T06:30:26;2.45;;;2.25;;
64063;SDS011;50314;50.618;10.642;2022-09-06T06:32:51;2.65;;;1.73;;
64063;SDS011;50314;50.618;10.642;2022-09-06T06:35:17;3.58;;;1.90;;
64063;SDS011;50314;50.618;10.642;2022-09-06T06:37:42;2.83;;;1.98;;
64063;SDS011;50314;50.618;10.642;2022-09-06T06:40:09;2.30;;;1.98;;
64063;SDS011;50314;50.618;10.642;2022-09-06T06:42:35;2.60;;;1.90;;
64063;SDS011;50314;50.618;10.642;2022-09-06T06:48:05;2.53;;;2.10;;
64063;SDS011;50314;50.618;10.642;2022-09-06T06:50:31;2.20;;;1.80;;
64063;SDS011;50314;50.618;10.642;2022-09-06T06:52:56;3.20;;;1.90;;
64063;SDS011;50314;50.618;10.642;2022-09-06T06:55:21;2.47;;;1.95;;
64063;SDS011;50314;50.618;10.642;2022-09-06T06:57:47;2.50;;;1.92;;
64063;SDS011;50314;50.618;10.642;2022-09-06T07:00:12;2.28;;;1.83;;
64063;SDS011;50314;50.618;10.642;2022-09-06T07:02:38;3.17;;;1.90;;
64063;SDS011;50314;50.618;10.642;2022-09-06T07:05:03;2.80;;;1.95;;
64063;SDS011;50314;50.618;10.642;2022-09-06T07:07:29;2.85;;;1.92;;
64063;SDS011;50314;50.618;10.642;2022-09-06T07:09:55;3.03;;;1.95;;
64063;SDS011;50314;50.618;10.642;2022-09-06T07:12:20;2.83;;;2.10;;
64063;SDS011;50314;50.618;10.642;2022-09-06T07:14:45;1.83;;;1.70;;
64063;SDS011;50314;50.618;10.642;2022-09-06T07:17:11;2.33;;;2.13;;
64063;SDS011;50314;50.618;10.642;2022-09-06T07:19:36;3.85;;;1.88;;
64063;SDS011;50314;50.618;10.642;2022-09-06T07:22:01;3.45;;;2.45;;
64063;SDS011;50314;50.618;10.642;2022-09-06T07:24:27;2.47;;;2.05;;
64063;SDS011;50314;50.618;10.642;2022-09-06T07:26:52;4.10;;;2.08;;
64063;SDS011;50314;50.618;10.642;2022-09-06T07:29:17;2.15;;;1.77;;
64063;SDS011;50314;50.618;10.642;2022-09-06T07:31:43;3.25;;;2.10;;
64063;SDS011;50314;50.618;10.642;2022-09-06T07:34:08;2.72;;;2.20;;
64063;SDS011;50314;50.618;10.642;2022-09-06T07:36:33;3.15;;;2.30;;
64063;SDS011;50314;50.618;10.642;2022-09-06T07:38:59;3.03;;;2.33;;
64063;SDS011;50314;50.618;10.642;2022-09-06T07:41:24;3.30;;;2.15;;
64063;SDS011;50314;50.618;10.642;2022-09-06T07:43:53;2.53;;;2.33;;
64063;SDS011;50314;50.618;10.642;2022-09-06T07:46:18;2.33;;;2.00;;
64063;SDS011;50314;50.618;10.642;2022-09-06T07:48:44;3.80;;;2.15;;
64063;SDS011;50314;50.618;10.642;2022-09-06T07:51:11;4.35;;;2.22;;
64063;SDS011;50314;50.618;10.642;2022-09-06T07:53:40;3.97;;;2.20;;
64063;SDS011;50314;50.618;10.642;2022-09-06T07:56:08;2.67;;;2.30;;
64063;SDS011;50314;50.618;10.642;2022-09-06T07:58:35;2.95;;;2.45;;
64063;SDS011;50314;50.618;10.642;2022-09-06T08:03:52;2.83;;;2.10;;
64063;SDS011;50314;50.618;10.642;2022-09-06T08:06:18;2.95;;;2.30;;
64063;SDS011;50314;50.618;10.642;2022-09-06T08:08:45;4.00;;;2.72;;
64063;SDS011;50314;50.618;10.642;2022-09-06T08:11:10;2.47;;;1.90;;
64063;SDS011;50314;50.618;10.642;2022-09-06T08:13:36;3.58;;;2.40;;
64063;SDS011;50314;50.618;10.642;2022-09-06T08:16:06;2.80;;;2.28;;
64063;SDS011;50314;50.618;10.642;2022-09-06T08:18:33;2.38;;;2.17;;
64063;SDS011;50314;50.618;10.642;2022-09-06T08:21:06;3.28;;;2.58;;
64063;SDS011;50314;50.618;10.642;2022-09-06T08:23:31;3.35;;;2.30;;
64063;SDS011;50314;50.618;10.642;2022-09-06T08:25:57;2.30;;;2.08;;
64063;SDS011;50314;50.618;10.642;2022-09-06T08:28:23;5.10;;;2.35;;
64063;SDS011;50314;50.618;10.642;2022-09-06T08:30:49;2.97;;;2.30;;
64063;SDS011;50314;50.618;10.642;2022-09-06T08:33:15;2.40;;;2.15;;
64063;SDS011;50314;50.618;10.642;2022-09-06T08:35:52;2.58;;;2.20;;
64063;SDS011;50314;50.618;10.642;2022-09-06T08:38:18;3.67;;;2.10;;
64063;SDS011;50314;50.618;10.642;2022-09-06T08:40:44;2.90;;;2.17;;
64063;SDS011;50314;50.618;10.642;2022-09-06T08:43:12;2.45;;;2.00;;
64063;SDS011;50314;50.618;10.642;2022-09-06T08:45:42;2.92;;;2.58;;
64063;SDS011;50314;50.618;10.642;2022-09-06T08:48:09;2.97;;;2.58;;
64063;SDS011;50314;50.618;10.642;2022-09-06T08:50:35;3.03;;;2.40;;
64063;SDS011;50314;50.618;10.642;2022-09-06T08:53:04;2.60;;;2.20;;
64063;SDS011;50314;50.618;10.642;2022-09-06T08:55:47;2.53;;;2.10;;
64063;SDS011;50314;50.618;10.642;2022-09-06T08:58:36;3.00;;;2.10;;
64063;SDS011;50314;50.618;10.642;2022-09-06T09:01:53;2.78;;;2.30;;
64063;SDS011;50314;50.618;10.642;2022-09-06T09:04:19;2.83;;;2.28;;
64063;SDS011;50314;50.618;10.642;2022-09-06T09:06:47;2.67;;;1.95;;
64063;SDS011;50314;50.618;10.642;2022-09-06T09:09:18;3.30;;;2.13;;
64063;SDS011;50314;50.618;10.642;2022-09-06T09:11:44;3.13;;;2.35;;
64063;SDS011;50314;50.618;10.642;2022-09-06T09:19:20;2.60;;;2.03;;
64063;SDS011;50314;50.618;10.642;2022-09-06T09:21:46;3.00;;;2.22;;
64063;SDS011;50314;50.618;10.642;2022-09-06T09:24:12;3.13;;;2.30;;
64063;SDS011;50314;50.618;10.642;2022-09-06T09:29:15;3.38;;;2.50;;
64063;SDS011;50314;50.618;10.642;2022-09-06T09:31:43;2.65;;;2.20;;
64063;SDS011;50314;50.618;10.642;2022-09-06T09:34:12;2.20;;;2.00;;
64063;SDS011;50314;50.618;10.642;2022-09-06T09:37:08;2.28;;;2.08;;
64063;SDS011;50314;50.618;10.642;2022-09-06T09:39:53;2.75;;;2.05;;
64063;SDS011;50314;50.618;10.642;2022-09-06T09:42:26;2.00;;;1.80;;
64063;SDS011;50314;50.618;10.642;2022-09-06T09:44:55;2.20;;;1.80;;
64063;SDS011;50314;50.618;10.642;2022-09-06T09:47:39;2.45;;;1.70;;
64063;SDS011;50314;50.618;10.642;2022-09-06T09:50:06;3.03;;;2.00;;
64063;SDS011;50314;50.618;10.642;2022-09-06T09:52:54;1.85;;;1.67;;
64063;SDS011;50314;50.618;10.642;2022-09-06T09:55:24;2.50;;;2.10;;
64063;SDS011;50314;50.618;10.642;2022-09-06T09:57:50;2.47;;;1.90;;
64063;SDS011;50314;50.618;10.642;2022-09-06T10:00:34;2.28;;;2.08;;
64063;SDS011;50314;50.618;10.642;2022-09-06T10:03:37;3.60;;;2.88;;
64063;SDS011;50314;50.618;10.642;2022-09-06T10:05:56;3.45;;;2.78;;
64063;SDS011;50314;50.618;10.642;2022-09-06T10:08:25;3.03;;;2.47;;
64063;SDS011;50314;50.618;10.642;2022-09-06T10:10:52;3.20;;;2.20;;
64063;SDS011;50314;50.618;10.642;2022-09-06T10:15:49;3.75;;;2.95;;
64063;SDS011;50314;50.618;10.642;2022-09-06T10:20:52;3.63;;;2.90;;
64063;SDS011;50314;50.618;10.642;2022-09-06T10:26:15;3.75;;;2.72;;
64063;SDS011;50314;50.618;10.642;2022-09-06T10:31:46;3.60;;;3.00;;
64063;SDS011;50314;50.618;10.642;2022-09-06T10:37:07;4.38;;;2.88;;
64063;SDS011;50314;50.618;10.642;2022-09-06T10:39:56;4.70;;;3.08;;
64063;SDS011;50314;50.618;10.642;2022-09-06T10:54:00;5.28;;;3.35;;
64063;SDS011;50314;50.618;10.642;2022-09-06T10:59:32;3.28;;;2.80;;
64063;SDS011;50314;50.618;10.642;2022-09-06T11:04:34;3.30;;;2.65;;
64063;SDS011;50314;50.618;10.642;2022-09-06T11:07:24;4.05;;;3.38;;
64063;SDS011;50314;50.618;10.642;2022-09-06T11:09:56;3.20;;;2.60;;
64063;SDS011;50314;50.618;10.642;2022-09-06T11:14:59;3.80;;;3.00;;
64063;SDS011;50314;50.618;10.642;2022-09-06T11:20:56;3.85;;;2.90;;
64063;SDS011;50314;50.618;10.642;2022-09-06T11:29:09;3.47;;;3.15;;
64063;SDS011;50314;50.618;10.642;2022-09-06T11:31:52;3.25;;;2.83;;
64063;SDS011;50314;50.618;10.642;2022-09-06T11:34:21;2.65;;;2.25;;
64063;SDS011;50314;50.618;10.642;2022-09-06T11:36:50;4.22;;;2.60;;
64063;SDS011;50314;50.618;10.642;2022-09-06T11:39:27;3.83;;;2.60;;
64063;SDS011;50314;50.618;10.642;2022-09-06T11:41:56;2.55;;;2.17;;
64063;SDS011;50314;50.618;10.642;2022-09-06T11:55:18;3.10;;;2.60;;
64063;SDS011;50314;50.618;10.642;2022-09-06T11:57:51;3.22;;;2.60;;
64063;SDS011;50314;50.618;10.642;2022-09-06T12:00:20;3.78;;;3.05;;
64063;SDS011;50314;50.618;10.642;2022-09-06T12:02:48;3.38;;;2.80;;
64063;SDS011;50314;50.618;10.642;2022-09-06T12:05:18;3.83;;;2.63;;
64063;SDS011;50314;50.618;10.642;2022-09-06T12:15:59;4.55;;;2.53;;
64063;SDS011;50314;50.618;10.642;2022-09-06T12:24:00;3.30;;;2.90;;
64063;SDS011;50314;50.618;10.642;2022-09-06T12:26:43;3.60;;;2.80;;
64063;SDS011;50314;50.618;10.642;2022-09-06T12:29:23;3.35;;;2.50;;
64063;SDS011;50314;50.618;10.642;2022-09-06T12:31:51;2.80;;;2.45;;
64063;SDS011;50314;50.618;10.642;2022-09-06T12:34:20;3.13;;;2.50;;
64063;SDS011;50314;50.618;10.642;2022-09-06T12:36:49;3.03;;;2.65;;
64063;SDS011;50314;50.618;10.642;2022-09-06T12:39:18;3.28;;;2.70;;
64063;SDS011;50314;50.618;10.642;2022-09-06T12:41:49;3.65;;;2.85;;
64063;SDS011;50314;50.618;10.642;2022-09-06T12:44:26;3.05;;;2.38;;
64063;SDS011;50314;50.618;10.642;2022-09-06T12:47:09;3.08;;;2.50;;
64063;SDS011;50314;50.618;10.642;2022-09-06T12:49:38;5.72;;;2.60;;
64063;SDS011;50314;50.618;10.642;2022-09-06T12:52:08;2.88;;;2.50;;
64063;SDS011;50314;50.618;10.642;2022-09-06T12:54:46;3.10;;;2.33;;
64063;SDS011;50314;50.618;10.642;2022-09-06T12:57:20;2.92;;;2.45;;
64063;SDS011;50314;50.618;10.642;2022-09-06T12:59:48;4.85;;;2.60;;
64063;SDS011;50314;50.618;10.642;2022-09-06T13:02:16;2.72;;;2.33;;
64063;SDS011;50314;50.618;10.642;2022-09-06T13:05:06;3.97;;;2.60;;
64063;SDS011;50314;50.618;10.642;2022-09-06T13:07:37;2.88;;;2.55;;
64063;SDS011;50314;50.618;10.642;2022-09-06T13:10:06;3.75;;;2.80;;
64063;SDS011;50314;50.618;10.642;2022-09-06T13:12:34;3.28;;;2.38;;
64063;SDS011;50314;50.618;10.642;2022-09-06T13:15:04;3.30;;;2.30;;
64063;SDS011;50314;50.618;10.642;2022-09-06T13:17:46;2.42;;;2.22;;
64063;SDS011;50314;50.618;10.642;2022-09-06T13:20:33;2.50;;;2.03;;
64063;SDS011;50314;50.618;10.642;2022-09-06T13:23:06;3.47;;;2.33;;
64063;SDS011;50314;50.618;10.642;2022-09-06T13:25:34;3.00;;;1.80;;
64063;SDS011;50314;50.618;10.642;2022-09-06T13:28:10;3.33;;;2.30;;
64063;SDS011;50314;50.618;10.642;2022-09-06T13:33:03;2.08;;;1.85;;
64063;SDS011;50314;50.618;10.642;2022-09-06T13:35:32;2.70;;;2.00;;
64063;SDS011;50314;50.618;10.642;2022-09-06T13:41:04;3.17;;;1.80;;
64063;SDS011;50314;50.618;10.642;2022-09-06T13:43:38;2.47;;;2.03;;
64063;SDS011;50314;50.618;10.642;2022-09-06T13:46:08;2.33;;;1.90;;
64063;SDS011;50314;50.618;10.642;2022-09-06T13:48:35;3.13;;;2.28;;
64063;SDS011;50314;50.618;10.642;2022-09-06T13:51:03;2.60;;;2.05;;
64063;SDS011;50314;50.618;10.642;2022-09-06T13:53:30;2.10;;;1.90;;
64063;SDS011;50314;50.618;10.642;2022-09-06T13:55:56;1.92;;;1.60;;
64063;SDS011;50314;50.618;10.642;2022-09-06T13:58:23;2.72;;;1.75;;
64063;SDS011;50314;50.618;10.642;2022-09-06T14:00:48;2.13;;;1.83;;
64063;SDS011;50314;50.618;10.642;2022-09-06T14:03:19;2.60;;;1.92;;
64063;SDS011;50314;50.618;10.642;2022-09-06T14:05:48;2.70;;;2.10;;
64063;SDS011;50314;50.618;10.642;2022-09-06T14:08:14;2.55;;;1.95;;
64063;SDS011;50314;50.618;10.642;2022-09-06T14:10:40;2.00;;;1.65;;
64063;SDS011;50314;50.618;10.642;2022-09-06T14:13:05;2.45;;;1.77;;
64063;SDS011;50314;50.618;10.642;2022-09-06T14:15:30;2.80;;;2.00;;
64063;SDS011;50314;50.618;10.642;2022-09-06T14:17:56;2.95;;;1.95;;
64063;SDS011;50314;50.618;10.642;2022-09-06T14:20:21;2.42;;;1.88;;
64063;SDS011;50314;50.618;10.642;2022-09-06T14:22:47;2.08;;;1.70;;
64063;SDS011;50314;50.618;10.642;2022-09-06T14:25:12;2.25;;;1.70;;
64063;SDS011;50314;50.618;10.642;2022-09-06T14:27:38;2.47;;;1.60;;
64063;SDS011;50314;50.618;10.642;2022-09-06T14:30:03;2.00;;;1.80;;
64063;SDS011;50314;50.618;10.642;2022-09-06T14:32:29;2.20;;;1.65;;
64063;SDS011;50314;50.618;10.642;2022-09-06T14:34:55;3.03;;;1.90;;
64063;SDS011;50314;50.618;10.642;2022-09-06T14:37:20;2.55;;;1.88;;
64063;SDS011;50314;50.618;10.642;2022-09-06T14:39:46;2.00;;;1.60;;
64063;SDS011;50314;50.618;10.642;2022-09-06T14:42:11;1.95;;;1.77;;
64063;SDS011;50314;50.618;10.642;2022-09-06T14:44:37;2.33;;;1.90;;
64063;SDS011;50314;50.618;10.642;2022-09-06T14:47:03;2.38;;;1.73;;
64063;SDS011;50314;50.618;10.642;2022-09-06T14:49:29;2.33;;;1.58;;
64063;SDS011;50314;50.618;10.642;2022-09-06T14:51:55;1.92;;;1.60;;
64063;SDS011;50314;50.618;10.642;2022-09-06T14:54:20;1.73;;;1.45;;
64063;SDS011;50314;50.618;10.642;2022-09-06T14:56:46;2.05;;;1.60;;
64063;SDS011;50314;50.618;10.642;2022-09-06T14:59:12;2.30;;;1.70;;
64063;SDS011;50314;50.618;10.642;2022-09-06T15:01:38;3.13;;;1.85;;
64063;SDS011;50314;50.618;10.642;2022-09-06T15:04:04;2.53;;;1.63;;
64063;SDS011;50314;50.618;10.642;2022-09-06T15:06:32;2.13;;;1.60;;
64063;SDS011;50314;50.618;10.642;2022-09-06T15:09:00;2.03;;;1.63;;
64063;SDS011;50314;50.618;10.642;2022-09-06T15:11:27;1.95;;;1.60;;
64063;SDS011;50314;50.618;10.642;2022-09-06T15:13:55;2.10;;;1.60;;
64063;SDS011;50314;50.618;10.642;2022-09-06T15:16:21;2.00;;;1.50;;
64063;SDS011;50314;50.618;10.642;2022-09-06T15:18:47;1.40;;;1.30;;
64063;SDS011;50314;50.618;10.642;2022-09-06T15:21:13;2.35;;;1.75;;
64063;SDS011;50314;50.618;10.642;2022-09-06T15:23:40;3.42;;;1.67;;
64063;SDS011;50314;50.618;10.642;2022-09-06T15:26:10;2.30;;;1.67;;
64063;SDS011;50314;50.618;10.642;2022-09-06T15:28:38;2.30;;;1.75;;
64063;SDS011;50314;50.618;10.642;2022-09-06T15:33:30;2.03;;;1.40;;
64063;SDS011;50314;50.618;10.642;2022-09-06T15:38:22;2.70;;;1.52;;
64063;SDS011;50314;50.618;10.642;2022-09-06T15:40:48;1.98;;;1.40;;
64063;SDS011;50314;50.618;10.642;2022-09-06T15:43:14;2.40;;;1.63;;
64063;SDS011;50314;50.618;10.642;2022-09-06T15:45:47;1.77;;;1.35;;
64063;SDS011;50314;50.618;10.642;2022-09-06T15:48:14;1.70;;;1.58;;
64063;SDS011;50314;50.618;10.642;2022-09-06T15:50:41;2.20;;;1.88;;
64063;SDS011;50314;50.618;10.642;2022-09-06T15:53:07;2.72;;;1.70;;
64063;SDS011;50314;50.618;10.642;2022-09-06T15:55:33;2.22;;;1.38;;
64063;SDS011;50314;50.618;10.642;2022-09-06T15:58:17;2.53;;;1.60;;
64063;SDS011;50314;50.618;10.642;2022-09-06T16:00:42;3.67;;;1.60;;
64063;SDS011;50314;50.618;10.642;2022-09-06T16:03:08;1.77;;;1.42;;
64063;SDS011;50314;50.618;10.642;2022-09-06T16:05:34;2.30;;;1.52;;
64063;SDS011;50314;50.618;10.642;2022-09-06T16:08:00;2.50;;;1.60;;
64063;SDS011;50314;50.618;10.642;2022-09-06T16:10:25;2.05;;;1.25;;
64063;SDS011;50314;50.618;10.642;2022-09-06T16:12:51;2.17;;;1.50;;
64063;SDS011;50314;50.618;10.642;2022-09-06T16:15:17;3.05;;;1.63;;
64063;SDS011;50314;50.618;10.642;2022-09-06T16:17:43;3.03;;;1.75;;
64063;SDS011;50314;50.618;10.642;2022-09-06T16:20:09;1.55;;;1.45;;
64063;SDS011;50314;50.618;10.642;2022-09-06T16:22:34;2.13;;;1.50;;
64063;SDS011;50314;50.618;10.642;2022-09-06T16:25:01;2.08;;;1.38;;
64063;SDS011;50314;50.618;10.642;2022-09-06T16:27:26;1.92;;;1.55;;
64063;SDS011;50314;50.618;10.642;2022-09-06T16:29:52;1.58;;;1.30;;
64063;SDS011;50314;50.618;10.642;2022-09-06T16:32:17;2.28;;;1.60;;
64063;SDS011;50314;50.618;10.642;2022-09-06T16:34:43;1.90;;;1.55;;
64063;SDS011;50314;50.618;10.642;2022-09-06T16:37:08;1.98;;;1.50;;
64063;SDS011;50314;50.618;10.642;2022-09-06T16:39:34;1.50;;;1.40;;
64063;SDS011;50314;50.618;10.642;2022-09-06T16:41:59;2.47;;;1.58;;
64063;SDS011;50314;50.618;10.642;2022-09-06T16:44:25;4.95;;;1.55;;